Crystal City, Canada
Current Conditions -  °F | °C
As of 6:15 PM on Friday 24 Oct 2014 (Local Time) from K06D Reporting Station
Clear Clear  
Wind Chill: 57°   Ceiling: Unl
Heat Index: 57°   Visibility: 10mi
Dew Point: 32°   Wind: 14mph
Humidity: 38%   Direction: 270°W
Pressure: 29.83"   Gusts: 22mph
Location:  49.13°N, 98.95°W
Report Text: K06D 242315Z AUTO 27012G19KT 10SM CLR 14/00 A2983 RMK AO2
Loading
Personal Weather Stations






























Interactive Weather Map
Tropical Storm Tracking
New forecast layout! Learn more

10-Day Weather Forecast

Advertisements
Track Severe Weather on mobile